Time;durP1;ratioP1;P1;durP2;ratioP2;P2;SDS_P1;SDS_P2;PMS_P1;PMS_P2;Temp;Humidity;BMP_temperature;BMP_pressure;BME280_temperature;BME280_humidity;BME280_pressure;Samples;Min_cycle;Max_cycle;Signal;HPM_P1;HPM_P2
2021/12/11 00:02:16;;;;;;;5.70;4.10;;;;;;;9.68;84.51;99973.94;105452;1276;70393;-80
2021/12/11 00:04:49;;;;;;;8.10;3.70;;;;;;;9.71;84.33;99972.55;105647;1272;75402;-80
2021/12/11 00:07:19;;;;;;;6.80;4.10;;;;;;;9.68;84.19;99975.19;105518;1275;61592;-82
2021/12/11 00:10:11;;;;;;;7.00;4.30;;;;;;;9.70;84.36;99975.71;105630;1272;61173;-78
2021/12/11 00:12:48;;;;;;;6.40;3.70;;;;;;;9.73;84.18;99976.71;105686;1272;73536;-79
2021/12/11 00:15:21;;;;;;;6.50;3.80;;;;;;;9.74;84.26;99979.75;105790;1276;71890;-81
2021/12/11 00:17:57;;;;;;;10.90;4.50;;;;;;;9.77;83.96;99979.82;105726;1272;68743;-80
2021/12/11 00:20:29;;;;;;;7.40;3.70;;;;;;;9.77;84.08;99975.88;105498;1278;72021;-80
2021/12/11 00:22:58;;;;;;;7.60;3.70;;;;;;;9.77;84.15;99982.14;105549;1275;59659;-81
2021/12/11 00:25:28;;;;;;;4.70;3.10;;;;;;;9.76;84.11;99982.00;105615;1276;60118;-80
2021/12/11 00:28:06;;;;;;;5.30;2.90;;;;;;;9.78;84.12;99982.91;105496;1272;73640;-80
2021/12/11 00:30:38;;;;;;;6.80;3.50;;;;;;;9.73;84.01;99981.09;105588;1272;72159;-80
2021/12/11 00:33:18;;;;;;;7.20;3.10;;;;;;;9.75;84.09;99984.02;105518;1276;69441;-83
2021/12/11 00:35:46;;;;;;;4.90;2.60;;;;;;;9.74;84.05;99980.30;105646;1274;73143;-82
2021/12/11 00:38:20;;;;;;;5.00;2.30;;;;;;;9.73;83.97;99978.45;105666;1272;63439;-79
2021/12/11 00:40:49;;;;;;;4.90;2.70;;;;;;;9.76;83.56;99979.92;105643;1275;61009;-81
2021/12/11 00:43:21;;;;;;;3.30;2.00;;;;;;;9.73;83.50;99980.02;105589;1275;74131;-81
2021/12/11 00:45:50;;;;;;;3.60;1.90;;;;;;;9.74;83.54;99980.45;105539;1277;71519;-84
2021/12/11 00:48:21;;;;;;;5.40;2.10;;;;;;;9.79;83.11;99982.47;105619;1276;70280;-82
2021/12/11 00:50:57;;;;;;;4.70;2.00;;;;;;;9.78;82.62;99979.79;105706;1273;74212;-83
2021/12/11 00:53:56;;;;;;;3.50;1.90;;;;;;;9.82;82.65;99974.61;105568;1276;61616;-86
2021/12/11 00:56:37;;;;;;;3.70;1.90;;;;;;;9.84;82.61;99976.16;105546;1277;60273;-80
2021/12/11 00:59:12;;;;;;;3.20;1.90;;;;;;;9.89;82.46;99984.98;105660;1275;72061;-80
2021/12/11 01:01:54;;;;;;;5.90;2.70;;;;;;;9.90;82.82;99984.27;105664;1278;72357;-75
2021/12/11 01:04:32;;;;;;;3.80;2.00;;;;;;;9.88;82.43;99985.73;105571;1275;69563;-78
2021/12/11 01:07:07;;;;;;;3.30;1.90;;;;;;;9.88;82.43;99985.12;105598;1275;72012;-78
2021/12/11 01:09:42;;;;;;;4.60;2.10;;;;;;;9.84;82.06;99982.45;105547;1275;60622;-76
2021/12/11 01:12:45;;;;;;;3.80;2.20;;;;;;;9.87;82.23;99981.55;105632;1275;59754;-78
2021/12/11 01:15:34;;;;;;;4.60;2.30;;;;;;;9.88;82.26;99981.56;105577;1275;73002;-76
2021/12/11 01:21:14;;;;;;;3.90;2.40;;;;;;;9.95;82.24;99989.02;105579;1277;68732;-82
2021/12/11 01:26:20;;;;;;;3.50;2.20;;;;;;;9.98;82.36;99997.83;105613;1276;63113;-77
2021/12/11 01:28:50;;;;;;;5.70;3.20;;;;;;;10.04;82.45;100002.58;105481;1278;59947;-74
2021/12/11 01:31:20;;;;;;;3.40;2.30;;;;;;;9.97;80.67;100040.52;105589;1276;71890;-79
2021/12/11 01:33:51;;;;;;;4.10;2.80;;;;;;;9.51;78.65;100036.58;105612;1276;69499;-80
2021/12/11 01:36:20;;;;;;;3.30;2.60;;;;;;;8.98;79.38;100041.67;105571;1276;67931;-78
2021/12/11 01:38:55;;;;;;;2.90;2.30;;;;;;;8.51;80.37;100040.66;105572;1275;71349;-76
2021/12/11 01:41:24;;;;;;;2.90;2.30;;;;;;;8.20;81.31;100038.28;105570;1278;61402;-76
2021/12/11 01:43:56;;;;;;;4.20;3.50;;;;;;;7.94;82.02;100045.33;105572;1278;58837;-77
2021/12/11 01:46:26;;;;;;;3.90;3.50;;;;;;;7.75;82.95;100045.32;105588;1276;72877;-79
2021/12/11 01:49:01;;;;;;;3.80;3.30;;;;;;;7.59;83.84;100045.23;105570;1277;72653;-82
2021/12/11 01:51:35;;;;;;;3.90;3.50;;;;;;;7.57;83.76;100056.46;105638;1273;71629;-81
2021/12/11 01:54:19;;;;;;;3.10;2.20;;;;;;;7.40;84.05;100056.13;105680;1276;72522;-77
2021/12/11 01:56:54;;;;;;;5.50;3.40;;;;;;;7.34;84.12;100060.70;105695;1276;62241;-80
2021/12/11 01:59:31;;;;;;;6.10;4.00;;;;;;;7.20;84.63;100062.38;105532;1277;61113;-77
2021/12/11 02:02:34;;;;;;;3.60;3.10;;;;;;;7.13;84.79;100071.86;105637;1273;72563;-75
2021/12/11 02:05:04;;;;;;;;;;;;;;;6.89;85.80;100075.39;105617;1273;73177;-75
2021/12/11 02:07:45;;;;;;;4.50;3.50;;;;;;;6.79;86.24;100076.52;106236;1277;68396;-74
2021/12/11 02:10:26;;;;;;;4.10;3.60;;;;;;;6.77;85.89;100081.52;105685;1276;74940;-75
2021/12/11 02:12:56;;;;;;;4.40;3.80;;;;;;;6.73;86.42;100095.14;105638;1272;61968;-73
2021/12/11 02:15:34;;;;;;;4.40;3.40;;;;;;;6.70;86.69;100107.45;105664;1276;60455;-75
2021/12/11 02:18:12;;;;;;;6.00;4.90;;;;;;;6.69;86.59;100112.34;105584;1275;74214;-72
2021/12/11 02:21:30;;;;;;;6.30;4.90;;;;;;;6.66;86.91;100103.89;105715;1272;71143;-72
2021/12/11 02:24:10;;;;;;;7.80;6.60;;;;;;;6.59;87.36;100102.11;105545;1275;70454;-71
2021/12/11 02:26:39;;;;;;;13.00;11.10;;;;;;;6.55;87.37;100109.58;105702;1272;71263;-70
2021/12/11 02:29:15;;;;;;;16.60;14.30;;;;;;;6.53;87.72;100111.45;105514;1278;61297;-70
2021/12/11 02:32:18;;;;;;;20.40;14.70;;;;;;;6.45;87.93;100106.63;105611;1275;61361;-70
2021/12/11 02:34:55;;;;;;;19.80;15.80;;;;;;;6.32;88.52;100094.98;105454;1277;72336;-70
2021/12/11 02:37:38;;;;;;;20.10;16.00;;;;;;;6.30;88.58;100101.02;105580;1276;71490;-70
2021/12/11 02:40:15;;;;;;;25.80;18.20;;;;;;;6.34;88.89;100108.56;105596;1278;68733;-69
2021/12/11 02:43:14;;;;;;;26.00;18.20;;;;;;;6.31;88.92;100104.92;105725;1276;72939;-68
2021/12/11 02:46:08;;;;;;;31.70;21.60;;;;;;;6.22;88.89;100108.48;105610;1276;62212;-67
2021/12/11 02:48:38;;;;;;;;;;;;;;;6.18;89.11;100113.61;105731;1272;59389;-69
2021/12/11 02:51:30;;;;;;;44.90;25.20;;;;;;;6.07;89.22;100125.67;105515;1275;74600;-70
2021/12/11 02:54:41;;;;;;;46.00;25.10;;;;;;;6.08;89.10;100134.95;105629;1275;70501;-69
2021/12/11 02:57:19;;;;;;;49.20;29.50;;;;;;;6.02;89.13;100129.95;105547;1276;68034;-69
2021/12/11 02:59:48;;;;;;;50.80;31.10;;;;;;;6.03;89.40;100131.79;105678;1276;73948;-70
2021/12/11 03:02:26;;;;;;;57.90;32.60;;;;;;;5.96;89.28;100128.42;105683;1276;63382;-70
2021/12/11 03:05:05;;;;;;;57.70;35.30;;;;;;;5.89;89.51;100129.55;105610;1276;59514;-70
2021/12/11 03:07:37;;;;;;;57.50;35.20;;;;;;;5.88;89.65;100137.52;105717;1273;72612;-72
2021/12/11 03:10:10;;;;;;;60.30;35.40;;;;;;;5.89;89.28;100146.65;105570;1277;70082;-71
2021/12/11 03:12:39;;;;;;;66.20;40.20;;;;;;;5.95;89.82;100151.96;105733;1275;70261;-74
2021/12/11 03:15:09;;;;;;;63.50;40.10;;;;;;;5.99;89.88;100150.55;105681;1272;71588;-72
2021/12/11 03:17:38;;;;;;;75.20;43.50;;;;;;;5.87;89.41;100155.41;105726;1276;62017;-78
2021/12/11 03:20:10;;;;;;;70.80;42.10;;;;;;;5.85;89.77;100154.83;105594;1275;57942;-80
2021/12/11 03:22:38;;;;;;;77.70;46.70;;;;;;;5.72;89.70;100150.63;105570;1276;72298;-78
2021/12/11 03:25:14;;;;;;;83.90;47.30;;;;;;;5.69;89.62;100148.54;105572;1276;71302;-78
2021/12/11 03:27:43;;;;;;;82.00;47.50;;;;;;;5.70;89.98;100154.70;105423;1275;70634;-79
2021/12/11 03:30:15;;;;;;;82.10;48.60;;;;;;;5.66;89.83;100162.03;105609;1276;74426;-77
2021/12/11 03:32:46;;;;;;;95.00;54.60;;;;;;;5.71;90.06;100179.34;105484;1277;62134;-78
2021/12/11 03:35:15;;;;;;;114.40;53.20;;;;;;;5.60;89.54;100181.38;105612;1272;60626;-78
2021/12/11 03:37:44;;;;;;;109.90;56.30;;;;;;;5.43;89.14;100184.34;105621;1272;70972;-78
2021/12/11 03:40:13;;;;;;;113.90;56.20;;;;;;;5.32;89.67;100187.22;105460;1276;71153;-78
2021/12/11 03:42:48;;;;;;;112.50;48.90;;;;;;;5.19;89.26;100199.34;105483;1277;69093;-83
2021/12/11 03:45:25;;;;;;;110.40;52.10;;;;;;;5.07;89.41;100201.30;105796;1272;72175;-84
2021/12/11 03:47:59;;;;;;;108.00;58.20;;;;;;;5.03;89.72;100206.18;105747;1272;64033;-80
2021/12/11 03:50:29;;;;;;;107.30;53.10;;;;;;;4.99;89.78;100205.20;105831;1276;59885;-82
2021/12/11 03:52:58;;;;;;;110.60;60.70;;;;;;;4.98;89.96;100199.36;105546;1277;71773;-81
2021/12/11 03:55:31;;;;;;;96.60;51.20;;;;;;;4.97;90.40;100193.91;105818;1276;72991;-81
2021/12/11 03:58:01;;;;;;;119.80;62.70;;;;;;;4.94;90.38;100197.54;105579;1278;69503;-84
2021/12/11 04:00:50;;;;;;;113.30;64.50;;;;;;;4.95;90.42;100194.53;105744;1275;71358;-81
2021/12/11 04:03:22;;;;;;;125.40;65.20;;;;;;;5.02;90.70;100200.65;105632;1276;62042;-83
2021/12/11 04:05:52;;;;;;;122.10;66.50;;;;;;;5.00;90.11;100203.74;105760;1272;60743;-82
2021/12/11 04:08:27;;;;;;;128.90;66.70;;;;;;;5.00;90.07;100205.45;105767;1276;72336;-82
2021/12/11 04:10:57;;;;;;;125.60;65.40;;;;;;;4.96;90.22;100208.44;105692;1277;70376;-82
2021/12/11 04:13:25;;;;;;;125.30;68.20;;;;;;;4.95;90.40;100210.77;105712;1276;70888;-80
2021/12/11 04:15:55;;;;;;;118.40;53.50;;;;;;;4.91;90.53;100209.42;106757;1276;73869;-73
2021/12/11 04:18:24;;;;;;;120.40;57.50;;;;;;;4.86;90.15;100207.85;107377;1272;61074;-79
2021/12/11 04:20:53;;;;;;;121.80;67.30;;;;;;;4.82;90.31;100215.97;107038;1277;58958;-78
2021/12/11 04:23:22;;;;;;;125.30;66.20;;;;;;;4.86;90.68;100218.69;106363;1276;72890;-82
2021/12/11 04:25:53;;;;;;;132.70;69.90;;;;;;;4.85;90.67;100224.95;105573;1275;73799;-81
2021/12/11 04:28:22;;;;;;;136.30;72.90;;;;;;;4.88;90.60;100234.11;105613;1276;70906;-81
2021/12/11 04:30:53;;;;;;;129.90;69.80;;;;;;;4.88;90.62;100239.13;105703;1276;71722;-81
2021/12/11 04:33:22;;;;;;;128.20;69.00;;;;;;;4.80;90.11;100242.33;105737;1276;60415;-83
2021/12/11 04:35:51;;;;;;;137.40;69.90;;;;;;;4.83;90.52;100246.14;105620;1276;58904;-81
2021/12/11 04:38:20;;;;;;;143.20;72.70;;;;;;;4.79;90.55;100245.83;105537;1274;71081;-79
2021/12/11 04:40:53;;;;;;;149.40;75.80;;;;;;;4.80;90.43;100256.48;105725;1276;71534;-80
2021/12/11 04:43:24;;;;;;;143.00;72.60;;;;;;;4.81;90.68;100258.34;105545;1277;69603;-79
2021/12/11 04:46:06;;;;;;;151.80;76.30;;;;;;;4.85;90.41;100253.98;105733;1275;71987;-81
2021/12/11 04:51:27;;;;;;;146.40;74.10;;;;;;;4.77;90.31;100254.08;105691;1276;61658;-78
2021/12/11 05:05:52;;;;;;;156.30;72.30;;;;;;;4.58;90.42;100254.91;105772;1276;63059;-79
2021/12/11 05:08:48;;;;;;;160.50;78.60;;;;;;;4.62;90.72;100250.88;105719;1272;59120;-81
2021/12/11 05:11:09;;;;;;;157.40;76.90;;;;;;;4.51;90.12;100250.81;105677;1276;72092;-83
2021/12/11 05:13:37;;;;;;;145.10;66.00;;;;;;;4.47;90.02;100260.86;105694;1276;72268;-82
2021/12/11 05:16:09;;;;;;;150.30;77.80;;;;;;;4.45;90.41;100270.64;105820;1276;70227;-82
2021/12/11 05:18:40;;;;;;;159.70;57.50;;;;;;;4.42;90.45;100279.58;105786;1276;71542;-83
2021/12/11 05:21:15;;;;;;;154.40;71.50;;;;;;;4.39;90.12;100286.11;105790;1273;63032;-81
2021/12/11 05:23:44;;;;;;;167.80;79.70;;;;;;;4.35;90.69;100285.14;105714;1276;62972;-77
2021/12/11 05:26:13;;;;;;;150.40;75.00;;;;;;;4.34;90.58;100279.66;105782;1273;71646;-79
2021/12/11 05:28:42;;;;;;;154.90;75.80;;;;;;;4.37;90.85;100279.88;105614;1278;69630;-78
2021/12/11 05:31:12;;;;;;;155.10;65.50;;;;;;;4.32;91.06;100289.27;105595;1277;69766;-81
2021/12/11 05:33:43;;;;;;;160.90;80.30;;;;;;;4.34;91.16;100293.98;105682;1275;72328;-80
2021/12/11 05:36:13;;;;;;;155.70;79.10;;;;;;;4.34;90.88;100297.60;105727;1272;63309;-81
2021/12/11 05:38:43;;;;;;;160.20;78.30;;;;;;;4.26;90.50;100297.83;105623;1276;59262;-82
2021/12/11 05:41:13;;;;;;;157.10;77.70;;;;;;;4.25;90.42;100305.33;105655;1276;73582;-83
2021/12/11 05:43:42;;;;;;;156.80;76.90;;;;;;;4.25;90.50;100316.53;105650;1277;73135;-86
2021/12/11 05:46:13;;;;;;;158.00;77.20;;;;;;;4.24;90.54;100319.52;105793;1276;69304;-83
2021/12/11 05:48:43;;;;;;;168.00;79.00;;;;;;;4.26;90.47;100317.52;105646;1276;73094;-84
2021/12/11 05:51:16;;;;;;;157.00;76.60;;;;;;;4.26;91.01;100320.61;105583;1277;61839;-82
2021/12/11 05:53:47;;;;;;;162.20;77.70;;;;;;;4.20;90.99;100327.29;105654;1277;59711;-81
2021/12/11 05:56:17;;;;;;;179.30;82.20;;;;;;;4.19;90.71;100330.09;105490;1278;73645;-76
2021/12/11 05:59:08;;;;;;;162.80;73.20;;;;;;;4.22;90.62;100335.27;105650;1278;72720;-82
2021/12/11 06:01:59;;;;;;;162.30;76.20;;;;;;;4.29;90.88;100338.23;105762;1274;70548;-87
2021/12/11 06:04:33;;;;;;;166.00;79.20;;;;;;;4.27;91.33;100331.40;105846;1273;72480;-88
2021/12/11 06:07:03;;;;;;;174.10;82.00;;;;;;;4.22;90.70;100329.25;106021;1276;61187;-81
2021/12/11 06:09:32;;;;;;;165.60;79.30;;;;;;;4.26;91.15;100329.23;105990;1276;59030;-87
2021/12/11 06:12:06;;;;;;;158.90;79.00;;;;;;;4.21;90.76;100326.02;105761;1277;71702;-80
2021/12/11 06:14:35;;;;;;;167.20;79.50;;;;;;;4.17;91.04;100318.69;105909;1278;72321;-88
2021/12/11 06:17:10;;;;;;;171.60;81.10;;;;;;;4.09;91.06;100318.21;105715;1278;69850;-85
2021/12/11 06:19:42;;;;;;;165.70;82.50;;;;;;;4.02;90.53;100321.19;105902;1276;73833;-84
2021/12/11 06:22:10;;;;;;;158.00;76.80;;;;;;;4.06;90.70;100334.41;105653;1276;65160;-83
2021/12/11 06:24:39;;;;;;;164.50;77.40;;;;;;;4.08;90.46;100342.20;105824;1272;60971;-85
2021/12/11 06:27:08;;;;;;;168.10;79.90;;;;;;;4.15;90.45;100350.80;105807;1276;74072;-85
2021/12/11 06:29:37;;;;;;;165.30;82.30;;;;;;;4.15;90.69;100358.22;105568;1278;70854;-83
2021/12/11 06:32:07;;;;;;;177.20;84.10;;;;;;;4.24;90.33;100366.23;105624;1278;69152;-79
2021/12/11 06:34:36;;;;;;;168.90;79.90;;;;;;;4.23;90.65;100374.72;105845;1276;74377;-82
2021/12/11 06:37:07;;;;;;;151.70;72.80;;;;;;;4.25;90.80;100387.00;105638;1276;63764;-83
2021/12/11 06:39:36;;;;;;;167.00;81.50;;;;;;;4.27;91.22;100389.85;105993;1276;60106;-84
2021/12/11 06:42:16;;;;;;;168.60;76.90;;;;;;;4.14;90.79;100393.77;106040;1276;71206;-81
2021/12/11 06:44:46;;;;;;;165.10;76.30;;;;;;;4.30;90.90;100402.65;106020;1276;72713;-86
2021/12/11 06:47:15;;;;;;;167.90;81.00;;;;;;;4.24;90.70;100407.08;106038;1273;68326;-86
2021/12/11 06:49:45;;;;;;;156.10;72.50;;;;;;;4.19;90.70;100411.78;105820;1272;74514;-82
2021/12/11 06:52:21;;;;;;;167.00;76.00;;;;;;;4.16;90.85;100407.65;105920;1276;63843;-85
2021/12/11 06:54:50;;;;;;;174.70;84.30;;;;;;;4.23;91.18;100406.45;105916;1275;61500;-85
2021/12/11 06:57:19;;;;;;;178.10;86.00;;;;;;;4.28;91.03;100412.90;105875;1275;73240;-85
2021/12/11 06:59:48;;;;;;;189.70;71.80;;;;;;;4.32;89.40;100429.23;105569;1276;72337;-82
2021/12/11 07:02:19;;;;;;;161.50;68.60;;;;;;;4.50;90.50;100451.09;105903;1276;70667;-87
2021/12/11 07:04:49;;;;;;;164.60;65.70;;;;;;;4.42;90.09;100463.05;105551;1277;72343;-87
2021/12/11 07:07:22;;;;;;;167.40;82.30;;;;;;;4.34;90.42;100470.18;105895;1275;61334;-89
2021/12/11 07:09:53;;;;;;;;;;;;;;;4.36;90.34;100462.87;105685;1276;60500;-86
2021/12/11 07:12:22;;;;;;;175.60;80.40;;;;;;;4.35;90.80;100460.98;105839;1272;71478;-86
2021/12/11 07:14:52;;;;;;;170.00;83.50;;;;;;;4.42;90.88;100446.48;105721;1277;69721;-87
2021/12/11 07:17:21;;;;;;;169.50;82.80;;;;;;;4.40;90.74;100445.39;105870;1275;68785;-87
2021/12/11 07:19:50;;;;;;;163.70;83.10;;;;;;;4.44;90.99;100462.42;105637;1277;72998;-89
2021/12/11 07:22:19;;;;;;;180.10;89.80;;;;;;;4.49;90.89;100472.86;105837;1272;61294;-84
2021/12/11 07:24:54;;;;;;;177.00;87.50;;;;;;;4.46;90.78;100473.05;105609;1276;60474;-87
2021/12/11 07:27:23;;;;;;;167.60;88.50;;;;;;;4.46;91.05;100458.00;105793;1272;72166;-79
2021/12/11 07:29:52;;;;;;;166.10;83.10;;;;;;;4.42;90.94;100444.41;105641;1275;71515;-86
2021/12/11 07:32:20;;;;;;;179.30;90.60;;;;;;;4.44;91.30;100442.61;105800;1276;71179;-87
2021/12/11 07:34:49;;;;;;;176.90;85.50;;;;;;;4.39;90.92;100458.19;105831;1276;73951;-91
2021/12/11 07:37:18;;;;;;;178.20;88.10;;;;;;;4.36;90.90;100459.21;105942;1273;61007;-88
2021/12/11 07:39:47;;;;;;;178.20;91.30;;;;;;;4.30;89.73;100461.06;105768;1277;59745;-88
2021/12/11 07:42:16;;;;;;;177.20;89.40;;;;;;;4.46;90.17;100463.02;105777;1277;72682;-90
2021/12/11 07:44:45;;;;;;;186.50;90.20;;;;;;;4.59;90.72;100463.72;105898;1275;70431;-90
2021/12/11 07:47:14;;;;;;;174.40;90.90;;;;;;;4.72;90.27;100462.19;105813;1275;71019;-86
2021/12/11 07:49:42;;;;;;;191.20;92.50;;;;;;;4.74;89.58;100461.77;105609;1272;74696;-91
2021/12/11 07:52:12;;;;;;;183.70;90.00;;;;;;;4.79;88.77;100473.76;105919;1275;63622;-89
2021/12/11 07:54:42;;;;;;;174.70;86.50;;;;;;;4.90;90.26;100492.17;106218;1277;59575;-91
2021/12/11 07:57:11;;;;;;;173.40;79.60;;;;;;;4.95;90.66;100498.96;106321;1276;72836;-92
2021/12/11 07:59:39;;;;;;;164.90;73.20;;;;;;;5.00;91.14;100512.13;106380;1276;71896;-94
2021/12/11 08:02:08;;;;;;;163.90;78.30;;;;;;;4.92;90.22;100519.64;106003;1276;71824;-78
2021/12/11 08:04:37;;;;;;;152.40;57.80;;;;;;;4.95;90.37;100529.84;105888;1276;74483;-89
2021/12/11 08:07:06;;;;;;;136.20;59.00;;;;;;;4.93;89.75;100550.66;106133;1277;61468;-88
2021/12/11 08:09:35;;;;;;;147.60;66.40;;;;;;;4.85;89.23;100560.73;106034;1275;58938;-91
2021/12/11 08:12:05;;;;;;;151.80;69.70;;;;;;;4.85;89.84;100571.63;106489;1272;70870;-94
2021/12/11 08:14:35;;;;;;;137.00;59.90;;;;;;;4.95;90.08;100590.10;106141;1276;70944;-88
2021/12/11 08:17:06;;;;;;;126.60;46.80;;;;;;;4.88;89.58;100597.19;105936;1276;69825;-90
2021/12/11 08:19:35;;;;;;;130.30;51.40;;;;;;;4.89;88.94;100602.48;105912;1272;73752;-90
2021/12/11 08:22:07;;;;;;;125.70;55.50;;;;;;;4.84;88.13;100612.73;105936;1276;62225;-93
2021/12/11 08:24:38;;;;;;;149.00;63.20;;;;;;;4.81;88.26;100615.66;106122;1276;59398;-90
2021/12/11 08:27:26;;;;;;;146.60;67.20;;;;;;;4.72;88.59;100613.84;105803;1276;73776;-87
2021/12/11 08:29:55;;;;;;;144.90;66.10;;;;;;;4.72;89.16;100611.80;106055;1275;70220;-88
2021/12/11 08:32:25;;;;;;;142.70;65.30;;;;;;;4.78;89.73;100622.67;106144;1276;70551;-89
2021/12/11 08:34:55;;;;;;;131.20;45.70;;;;;;;4.95;89.98;100638.06;106024;1272;71844;-86
2021/12/11 08:37:24;;;;;;;129.90;48.80;;;;;;;4.98;88.14;100650.35;105863;1276;62914;-90
2021/12/11 08:39:53;;;;;;;137.20;50.80;;;;;;;4.94;88.17;100659.48;105894;1276;61852;-84
2021/12/11 08:42:24;;;;;;;108.30;34.30;;;;;;;5.00;88.22;100665.27;105823;1276;72821;-90
2021/12/11 08:44:59;;;;;;;113.80;44.30;;;;;;;5.00;87.59;100666.44;105748;1276;71140;-89
2021/12/11 08:47:28;;;;;;;129.70;51.20;;;;;;;5.01;88.12;100674.55;105735;1276;68740;-86
2021/12/11 08:49:57;;;;;;;124.40;43.80;;;;;;;5.05;87.98;100676.06;105845;1277;72036;-91
2021/12/11 08:52:28;;;;;;;128.60;49.20;;;;;;;5.00;87.44;100672.48;105914;1276;59628;-89
2021/12/11 08:54:58;;;;;;;137.10;54.20;;;;;;;4.93;87.52;100673.02;106246;1276;61295;-90
2021/12/11 08:57:30;;;;;;;144.00;59.30;;;;;;;4.97;88.33;100673.69;106650;1276;74206;-87
2021/12/11 09:00:08;;;;;;;154.80;63.90;;;;;;;5.04;88.21;100666.60;106521;1277;70304;-90
2021/12/11 09:02:46;;;;;;;151.50;60.50;;;;;;;5.26;87.21;100663.59;106400;1276;68471;-90
2021/12/11 09:05:24;;;;;;;145.00;65.10;;;;;;;5.53;88.20;100664.98;105989;1277;73127;-89
2021/12/11 09:08:12;;;;;;;138.90;59.30;;;;;;;5.57;86.31;100657.14;105899;1276;62244;-90
2021/12/11 09:10:58;;;;;;;147.30;67.50;;;;;;;5.74;85.42;100652.63;105960;1276;60543;-83
2021/12/11 09:13:43;;;;;;;138.60;61.80;;;;;;;5.84;84.24;100650.23;105618;1276;73506;-92
2021/12/11 09:16:38;;;;;;;132.10;59.50;;;;;;;6.12;88.24;100645.23;105741;1275;72600;-80
2021/12/11 09:19:21;;;;;;;123.60;56.40;;;;;;;5.94;87.72;100637.39;105881;1276;71035;-87
2021/12/11 09:22:12;;;;;;;131.10;56.50;;;;;;;6.03;89.99;100632.45;105982;1276;74363;-90
2021/12/11 09:24:55;;;;;;;128.80;62.00;;;;;;;5.82;87.80;100641.15;105985;1276;63058;-88
2021/12/11 09:27:32;;;;;;;;;;;;;;;5.80;85.41;100639.18;105845;1275;59345;-89
2021/12/11 09:30:21;;;;;;;146.40;62.70;;;;;;;5.82;83.95;100637.02;105839;1272;72800;-89
2021/12/11 09:33:00;;;;;;;135.60;62.20;;;;;;;6.15;85.90;100635.77;106048;1275;69898;-89
2021/12/11 09:35:40;;;;;;;134.90;61.70;;;;;;;6.16;83.22;100633.42;105654;1276;67861;-87
2021/12/11 09:38:20;;;;;;;125.20;57.70;;;;;;;6.47;84.45;100634.49;105871;1275;74470;-87
2021/12/11 09:40:52;;;;;;;117.40;57.00;;;;;;;6.65;86.09;100644.00;105673;1275;64502;-83
2021/12/11 09:43:58;;;;;;;115.40;54.60;;;;;;;6.70;85.45;100644.27;105714;1278;60413;-87
2021/12/11 09:46:38;;;;;;;118.20;53.70;;;;;;;7.08;88.60;100643.06;105824;1276;74642;-84
2021/12/11 09:49:09;;;;;;;115.30;52.00;;;;;;;7.13;87.17;100643.16;105698;1276;72230;-86
2021/12/11 09:51:42;;;;;;;139.00;60.00;;;;;;;7.25;89.33;100640.00;105876;1276;70972;-85
2021/12/11 09:54:22;;;;;;;138.90;56.90;;;;;;;6.99;87.07;100652.11;105649;1276;74328;-86
2021/12/11 09:56:59;;;;;;;138.70;61.50;;;;;;;7.17;88.98;100654.31;105778;1276;60966;-87
2021/12/11 09:59:30;;;;;;;132.70;57.70;;;;;;;7.11;87.92;100649.63;105604;1276;58890;-85
2021/12/11 10:02:04;;;;;;;120.60;53.20;;;;;;;7.15;89.71;100648.53;105779;1276;72674;-84
2021/12/11 10:04:52;;;;;;;132.80;63.10;;;;;;;7.08;89.69;100644.48;105764;1276;70342;-83
2021/12/11 10:07:28;;;;;;;134.70;61.50;;;;;;;7.04;88.84;100636.36;106121;1277;68057;-82
2021/12/11 10:10:21;;;;;;;127.20;63.60;;;;;;;7.09;88.27;100637.85;106202;1272;73059;-90
2021/12/11 10:12:54;;;;;;;132.00;64.10;;;;;;;7.13;88.86;100643.85;107006;1272;63337;-88
2021/12/11 10:15:34;;;;;;;142.20;63.50;;;;;;;7.15;88.82;100644.73;107347;1277;59448;-82
2021/12/11 10:18:19;;;;;;;142.80;61.50;;;;;;;7.12;86.93;100644.42;107575;1275;72750;-86
2021/12/11 10:20:57;;;;;;;119.70;57.90;;;;;;;7.28;88.92;100647.10;107621;1272;71476;-87
2021/12/11 10:23:29;;;;;;;112.50;55.70;;;;;;;7.41;89.84;100646.52;106528;1272;70129;-92
2021/12/11 10:26:01;;;;;;;112.90;53.30;;;;;;;7.44;90.50;100644.95;105857;1276;72154;-92
2021/12/11 10:28:30;;;;;;;108.80;56.20;;;;;;;7.54;90.77;100647.98;105637;1276;62967;-91
2021/12/11 10:31:34;;;;;;;105.70;55.40;;;;;;;7.54;88.20;100649.83;105832;1276;59619;-88
2021/12/11 10:34:06;;;;;;;;;;;;;;;7.86;88.09;100644.92;105657;1272;69921;-82
2021/12/11 10:36:44;;;;;;;100.00;54.10;;;;;;;8.04;90.11;100646.08;105677;1272;69003;-88
2021/12/11 10:39:14;;;;;;;106.80;58.00;;;;;;;8.14;90.37;100644.77;105544;1272;70456;-89
2021/12/11 10:41:45;;;;;;;105.40;57.20;;;;;;;8.28;88.06;100645.77;105766;1275;71255;-84
2021/12/11 10:44:26;;;;;;;97.40;54.40;;;;;;;8.62;86.39;100646.20;105584;1275;61970;-79
2021/12/11 10:47:19;;;;;;;90.00;52.20;;;;;;;8.87;83.80;100643.91;105619;1275;60485;-74
2021/12/11 10:50:20;;;;;;;93.90;53.70;;;;;;;9.43;89.27;100644.97;105527;1272;73086;-73
2021/12/11 10:52:50;;;;;;;86.10;50.60;;;;;;;9.37;87.41;100648.69;105566;1276;72002;-73
2021/12/11 10:55:22;;;;;;;86.70;49.70;;;;;;;9.45;86.42;100653.54;105411;1277;68281;-74
2021/12/11 10:57:53;;;;;;;89.40;49.90;;;;;;;9.30;78.88;100648.80;105526;1272;72125;-74
2021/12/11 11:00:42;;;;;;;84.20;49.90;;;;;;;9.24;77.37;100652.52;105603;1276;62533;-85
2021/12/11 11:03:11;;;;;;;82.20;49.80;;;;;;;9.50;82.37;100653.89;105728;1273;57929;-85
2021/12/11 11:05:40;;;;;;;78.20;48.90;;;;;;;9.64;85.56;100656.39;105731;1273;72807;-83
2021/12/11 11:08:08;;;;;;;88.40;53.70;;;;;;;9.33;80.61;100657.46;105554;1276;72540;-85
2021/12/11 11:10:47;;;;;;;95.80;55.70;;;;;;;9.05;75.07;100647.88;105694;1272;69475;-85
2021/12/11 11:13:16;;;;;;;90.60;53.00;;;;;;;8.91;75.32;100645.55;105602;1275;72000;-80
2021/12/11 11:15:45;;;;;;;90.70;51.50;;;;;;;8.99;77.17;100650.05;105542;1278;61447;-85
2021/12/11 11:18:16;;;;;;;93.30;55.50;;;;;;;8.84;75.12;100651.39;105710;1272;60439;-83
2021/12/11 11:20:55;;;;;;;86.60;53.30;;;;;;;9.03;78.39;100654.95;105445;1277;72586;-83
2021/12/11 11:23:24;;;;;;;88.90;54.60;;;;;;;9.16;80.67;100653.37;105588;1275;72257;-81
2021/12/11 11:25:55;;;;;;;85.80;55.70;;;;;;;9.22;78.50;100651.06;105625;1276;70984;-80
2021/12/11 11:28:30;;;;;;;86.60;52.50;;;;;;;9.37;79.99;100648.71;105750;1272;73324;-81
2021/12/11 11:31:07;;;;;;;87.00;52.30;;;;;;;9.33;74.64;100656.59;105710;1275;61605;-81
2021/12/11 11:33:37;;;;;;;87.90;53.00;;;;;;;9.37;74.13;100664.48;105550;1276;60873;-81
2021/12/11 11:36:09;;;;;;;87.20;52.10;;;;;;;9.62;76.99;100666.27;105730;1275;71377;-80
2021/12/11 11:38:41;;;;;;;88.50;56.00;;;;;;;9.52;74.91;100668.84;105711;1273;71323;-81
2021/12/11 11:41:18;;;;;;;90.80;54.70;;;;;;;9.53;75.17;100668.77;105744;1272;69833;-84
2021/12/11 11:43:47;;;;;;;88.50;54.00;;;;;;;9.58;75.97;100670.36;105760;1275;70561;-83
2021/12/11 11:46:17;;;;;;;97.80;59.30;;;;;;;9.43;75.33;100661.69;105562;1276;60143;-81
2021/12/11 11:48:49;;;;;;;96.40;58.70;;;;;;;9.41;77.35;100669.77;105733;1275;59432;-81
2021/12/11 11:51:30;;;;;;;94.90;57.70;;;;;;;9.28;77.49;100668.91;105509;1276;71546;-80
2021/12/11 11:54:00;;;;;;;97.40;56.70;;;;;;;9.07;76.56;100674.67;105848;1275;71288;-80
2021/12/11 11:56:31;;;;;;;92.00;55.20;;;;;;;8.88;76.63;100678.37;105565;1273;71753;-84
2021/12/11 11:59:00;;;;;;;89.90;53.70;;;;;;;8.85;77.16;100674.39;105881;1276;71724;-79
2021/12/11 12:01:37;;;;;;;92.90;55.40;;;;;;;8.80;78.09;100671.59;105757;1275;61451;-77
2021/12/11 12:04:06;;;;;;;94.50;57.30;;;;;;;8.85;78.23;100679.27;105717;1275;61418;-82